sensor_id;sensor_type;location;lat;lon;timestamp;P1;durP1;ratioP1;P2;durP2;ratioP2
73266;SDS011;61495;53.400;7.608;2023-02-22T00:00:08;36.08;;;18.73;;
73266;SDS011;61495;53.400;7.608;2023-02-22T00:02:43;37.28;;;16.67;;
73266;SDS011;61495;53.400;7.608;2023-02-22T00:05:12;34.25;;;15.18;;
73266;SDS011;61495;53.400;7.608;2023-02-22T00:07:41;35.13;;;17.35;;
73266;SDS011;61495;53.400;7.608;2023-02-22T00:10:08;37.90;;;17.83;;
73266;SDS011;61495;53.400;7.608;2023-02-22T00:12:38;40.88;;;16.90;;
73266;SDS011;61495;53.400;7.608;2023-02-22T00:15:04;39.80;;;17.95;;
73266;SDS011;61495;53.400;7.608;2023-02-22T00:17:30;36.95;;;17.00;;
73266;SDS011;61495;53.400;7.608;2023-02-22T00:19:56;36.25;;;15.77;;
73266;SDS011;61495;53.400;7.608;2023-02-22T00:22:21;39.40;;;17.85;;
73266;SDS011;61495;53.400;7.608;2023-02-22T00:24:46;39.65;;;17.33;;
73266;SDS011;61495;53.400;7.608;2023-02-22T00:27:12;34.38;;;15.15;;
73266;SDS011;61495;53.400;7.608;2023-02-22T00:29:38;41.65;;;18.05;;
73266;SDS011;61495;53.400;7.608;2023-02-22T00:32:08;38.13;;;17.42;;
73266;SDS011;61495;53.400;7.608;2023-02-22T00:34:34;38.55;;;17.90;;
73266;SDS011;61495;53.400;7.608;2023-02-22T00:36:59;40.25;;;17.60;;
73266;SDS011;61495;53.400;7.608;2023-02-22T00:39:26;38.50;;;17.95;;
73266;SDS011;61495;53.400;7.608;2023-02-22T00:41:52;39.97;;;16.17;;
73266;SDS011;61495;53.400;7.608;2023-02-22T00:44:17;36.50;;;15.70;;
73266;SDS011;61495;53.400;7.608;2023-02-22T00:46:43;37.88;;;16.35;;
73266;SDS011;61495;53.400;7.608;2023-02-22T00:49:08;39.03;;;17.05;;
73266;SDS011;61495;53.400;7.608;2023-02-22T00:51:33;42.03;;;16.58;;
73266;SDS011;61495;53.400;7.608;2023-02-22T00:53:59;42.05;;;16.80;;
73266;SDS011;61495;53.400;7.608;2023-02-22T00:56:24;36.33;;;14.82;;
73266;SDS011;61495;53.400;7.608;2023-02-22T00:58:49;36.22;;;15.00;;
73266;SDS011;61495;53.400;7.608;2023-02-22T01:01:15;39.63;;;16.08;;
73266;SDS011;61495;53.400;7.608;2023-02-22T01:03:40;38.78;;;16.42;;
73266;SDS011;61495;53.400;7.608;2023-02-22T01:06:06;41.13;;;15.90;;
73266;SDS011;61495;53.400;7.608;2023-02-22T01:08:31;34.83;;;15.23;;
73266;SDS011;61495;53.400;7.608;2023-02-22T01:10:56;35.85;;;14.63;;
73266;SDS011;61495;53.400;7.608;2023-02-22T01:13:22;37.92;;;15.50;;
73266;SDS011;61495;53.400;7.608;2023-02-22T01:15:47;39.90;;;15.02;;
73266;SDS011;61495;53.400;7.608;2023-02-22T01:18:14;43.50;;;16.63;;
73266;SDS011;61495;53.400;7.608;2023-02-22T01:20:41;38.03;;;14.90;;
73266;SDS011;61495;53.400;7.608;2023-02-22T01:23:11;35.58;;;14.15;;
73266;SDS011;61495;53.400;7.608;2023-02-22T01:25:38;31.25;;;14.52;;
73266;SDS011;61495;53.400;7.608;2023-02-22T01:28:04;33.42;;;14.68;;
73266;SDS011;61495;53.400;7.608;2023-02-22T01:30:31;35.92;;;14.30;;
73266;SDS011;61495;53.400;7.608;2023-02-22T01:32:59;36.50;;;14.82;;
73266;SDS011;61495;53.400;7.608;2023-02-22T01:35:30;39.13;;;14.80;;
73266;SDS011;61495;53.400;7.608;2023-02-22T01:37:57;34.20;;;13.40;;
73266;SDS011;61495;53.400;7.608;2023-02-22T01:40:25;36.05;;;13.38;;
73266;SDS011;61495;53.400;7.608;2023-02-22T01:42:54;33.63;;;15.00;;
73266;SDS011;61495;53.400;7.608;2023-02-22T01:50:34;36.75;;;13.73;;
73266;SDS011;61495;53.400;7.608;2023-02-22T01:53:06;35.42;;;13.73;;
73266;SDS011;61495;53.400;7.608;2023-02-22T01:55:35;34.17;;;12.43;;
73266;SDS011;61495;53.400;7.608;2023-02-22T01:58:02;36.78;;;13.88;;
73266;SDS011;61495;53.400;7.608;2023-02-22T02:00:29;34.90;;;13.75;;
73266;SDS011;61495;53.400;7.608;2023-02-22T02:03:02;34.40;;;13.50;;
73266;SDS011;61495;53.400;7.608;2023-02-22T02:05:31;34.90;;;14.10;;
73266;SDS011;61495;53.400;7.608;2023-02-22T02:08:00;34.22;;;12.57;;
73266;SDS011;61495;53.400;7.608;2023-02-22T02:10:37;33.72;;;13.82;;
73266;SDS011;61495;53.400;7.608;2023-02-22T02:13:08;35.35;;;13.27;;
73266;SDS011;61495;53.400;7.608;2023-02-22T02:15:34;35.88;;;13.00;;
73266;SDS011;61495;53.400;7.608;2023-02-22T02:18:01;36.20;;;14.02;;
73266;SDS011;61495;53.400;7.608;2023-02-22T02:40:24;29.98;;;13.82;;
73266;SDS011;61495;53.400;7.608;2023-02-22T02:45:59;33.83;;;13.60;;
73266;SDS011;61495;53.400;7.608;2023-02-22T02:48:42;32.63;;;11.82;;
73266;SDS011;61495;53.400;7.608;2023-02-22T02:51:15;37.58;;;14.45;;
73266;SDS011;61495;53.400;7.608;2023-02-22T02:53:43;34.95;;;12.93;;
73266;SDS011;61495;53.400;7.608;2023-02-22T02:56:12;35.72;;;14.07;;
73266;SDS011;61495;53.400;7.608;2023-02-22T02:58:44;32.60;;;12.60;;
73266;SDS011;61495;53.400;7.608;2023-02-22T03:01:13;34.40;;;12.85;;
73266;SDS011;61495;53.400;7.608;2023-02-22T03:14:31;32.58;;;12.18;;
73266;SDS011;61495;53.400;7.608;2023-02-22T03:17:25;32.92;;;13.13;;
73266;SDS011;61495;53.400;7.608;2023-02-22T03:20:00;32.28;;;12.30;;
73266;SDS011;61495;53.400;7.608;2023-02-22T03:22:38;35.72;;;14.32;;
73266;SDS011;61495;53.400;7.608;2023-02-22T03:25:16;34.38;;;12.32;;
73266;SDS011;61495;53.400;7.608;2023-02-22T03:27:47;34.92;;;14.18;;
73266;SDS011;61495;53.400;7.608;2023-02-22T03:32:45;35.95;;;13.80;;
73266;SDS011;61495;53.400;7.608;2023-02-22T03:35:15;40.05;;;14.27;;
73266;SDS011;61495;53.400;7.608;2023-02-22T03:37:45;35.00;;;12.80;;
73266;SDS011;61495;53.400;7.608;2023-02-22T03:40:16;42.72;;;15.55;;
73266;SDS011;61495;53.400;7.608;2023-02-22T03:42:51;37.53;;;13.20;;
73266;SDS011;61495;53.400;7.608;2023-02-22T03:45:21;39.70;;;16.35;;
73266;SDS011;61495;53.400;7.608;2023-02-22T03:47:50;39.40;;;14.00;;
73266;SDS011;61495;53.400;7.608;2023-02-22T03:50:24;39.42;;;14.43;;
73266;SDS011;61495;53.400;7.608;2023-02-22T03:52:54;41.58;;;16.02;;
73266;SDS011;61495;53.400;7.608;2023-02-22T03:55:23;37.38;;;13.30;;
73266;SDS011;61495;53.400;7.608;2023-02-22T03:57:50;30.63;;;12.00;;
73266;SDS011;61495;53.400;7.608;2023-02-22T04:00:20;41.72;;;14.02;;
73266;SDS011;61495;53.400;7.608;2023-02-22T04:02:48;35.22;;;13.52;;
73266;SDS011;61495;53.400;7.608;2023-02-22T04:05:14;34.15;;;12.10;;
73266;SDS011;61495;53.400;7.608;2023-02-22T04:07:41;33.30;;;13.35;;
73266;SDS011;61495;53.400;7.608;2023-02-22T04:10:06;36.70;;;13.45;;
73266;SDS011;61495;53.400;7.608;2023-02-22T04:12:33;33.72;;;14.77;;
73266;SDS011;61495;53.400;7.608;2023-02-22T04:14:59;32.45;;;12.65;;
73266;SDS011;61495;53.400;7.608;2023-02-22T04:17:26;31.85;;;13.00;;
73266;SDS011;61495;53.400;7.608;2023-02-22T04:19:51;32.53;;;13.35;;
73266;SDS011;61495;53.400;7.608;2023-02-22T04:22:17;33.10;;;11.43;;
73266;SDS011;61495;53.400;7.608;2023-02-22T04:24:42;34.40;;;14.38;;
73266;SDS011;61495;53.400;7.608;2023-02-22T04:27:07;33.08;;;13.60;;
73266;SDS011;61495;53.400;7.608;2023-02-22T04:29:33;33.42;;;13.43;;
73266;SDS011;61495;53.400;7.608;2023-02-22T04:31:58;36.00;;;13.55;;
73266;SDS011;61495;53.400;7.608;2023-02-22T04:34:24;38.30;;;15.02;;
73266;SDS011;61495;53.400;7.608;2023-02-22T04:36:49;31.83;;;12.82;;
73266;SDS011;61495;53.400;7.608;2023-02-22T04:39:14;31.55;;;13.15;;
73266;SDS011;61495;53.400;7.608;2023-02-22T04:41:40;33.65;;;13.30;;
73266;SDS011;61495;53.400;7.608;2023-02-22T04:44:11;35.60;;;12.93;;
73266;SDS011;61495;53.400;7.608;2023-02-22T04:46:36;31.92;;;12.70;;
73266;SDS011;61495;53.400;7.608;2023-02-22T04:49:01;30.87;;;12.60;;
73266;SDS011;61495;53.400;7.608;2023-02-22T04:51:27;27.60;;;11.13;;
73266;SDS011;61495;53.400;7.608;2023-02-22T04:53:52;28.88;;;11.23;;
73266;SDS011;61495;53.400;7.608;2023-02-22T04:56:18;31.10;;;12.30;;
73266;SDS011;61495;53.400;7.608;2023-02-22T04:58:44;29.33;;;11.38;;
73266;SDS011;61495;53.400;7.608;2023-02-22T05:01:09;27.98;;;12.13;;
73266;SDS011;61495;53.400;7.608;2023-02-22T05:03:38;28.30;;;11.57;;
73266;SDS011;61495;53.400;7.608;2023-02-22T05:06:03;30.20;;;12.45;;
73266;SDS011;61495;53.400;7.608;2023-02-22T05:08:28;28.67;;;11.65;;
73266;SDS011;61495;53.400;7.608;2023-02-22T05:10:54;27.35;;;11.43;;
73266;SDS011;61495;53.400;7.608;2023-02-22T05:13:20;31.17;;;12.80;;
73266;SDS011;61495;53.400;7.608;2023-02-22T05:15:45;28.75;;;12.38;;
73266;SDS011;61495;53.400;7.608;2023-02-22T05:18:12;27.15;;;12.10;;
73266;SDS011;61495;53.400;7.608;2023-02-22T05:20:38;30.92;;;11.55;;
73266;SDS011;61495;53.400;7.608;2023-02-22T05:23:03;30.05;;;13.00;;
73266;SDS011;61495;53.400;7.608;2023-02-22T05:25:29;28.00;;;11.50;;
73266;SDS011;61495;53.400;7.608;2023-02-22T05:27:56;26.20;;;11.10;;
73266;SDS011;61495;53.400;7.608;2023-02-22T05:30:29;28.05;;;12.65;;
73266;SDS011;61495;53.400;7.608;2023-02-22T05:35:25;32.10;;;12.30;;
73266;SDS011;61495;53.400;7.608;2023-02-22T05:37:51;24.35;;;10.45;;
73266;SDS011;61495;53.400;7.608;2023-02-22T05:40:17;27.95;;;11.02;;
73266;SDS011;61495;53.400;7.608;2023-02-22T05:42:44;28.45;;;11.10;;
73266;SDS011;61495;53.400;7.608;2023-02-22T05:45:13;31.15;;;12.35;;
73266;SDS011;61495;53.400;7.608;2023-02-22T05:47:40;27.83;;;10.38;;
73266;SDS011;61495;53.400;7.608;2023-02-22T05:50:06;29.42;;;12.73;;
73266;SDS011;61495;53.400;7.608;2023-02-22T05:52:32;25.30;;;11.38;;
73266;SDS011;61495;53.400;7.608;2023-02-22T05:54:57;27.45;;;11.02;;
73266;SDS011;61495;53.400;7.608;2023-02-22T05:57:23;23.60;;;9.68;;
73266;SDS011;61495;53.400;7.608;2023-02-22T05:59:48;26.45;;;11.70;;
73266;SDS011;61495;53.400;7.608;2023-02-22T06:02:13;32.97;;;12.35;;
73266;SDS011;61495;53.400;7.608;2023-02-22T06:04:39;26.92;;;11.57;;
73266;SDS011;61495;53.400;7.608;2023-02-22T06:07:04;26.05;;;10.82;;
73266;SDS011;61495;53.400;7.608;2023-02-22T06:09:30;27.02;;;11.63;;
73266;SDS011;61495;53.400;7.608;2023-02-22T06:11:56;26.15;;;11.75;;
73266;SDS011;61495;53.400;7.608;2023-02-22T06:14:24;26.67;;;11.88;;
73266;SDS011;61495;53.400;7.608;2023-02-22T06:16:53;23.98;;;11.25;;
73266;SDS011;61495;53.400;7.608;2023-02-22T06:19:19;27.92;;;11.50;;
73266;SDS011;61495;53.400;7.608;2023-02-22T06:21:51;24.23;;;11.23;;
73266;SDS011;61495;53.400;7.608;2023-02-22T06:24:18;23.35;;;10.43;;
73266;SDS011;61495;53.400;7.608;2023-02-22T06:26:43;22.15;;;9.45;;
73266;SDS011;61495;53.400;7.608;2023-02-22T06:29:09;27.77;;;11.48;;
73266;SDS011;61495;53.400;7.608;2023-02-22T06:31:36;24.77;;;9.25;;
73266;SDS011;61495;53.400;7.608;2023-02-22T06:34:01;28.42;;;10.68;;
73266;SDS011;61495;53.400;7.608;2023-02-22T06:36:27;23.65;;;10.10;;
73266;SDS011;61495;53.400;7.608;2023-02-22T06:38:53;23.10;;;10.20;;
73266;SDS011;61495;53.400;7.608;2023-02-22T06:41:20;23.50;;;9.15;;
73266;SDS011;61495;53.400;7.608;2023-02-22T06:43:46;20.88;;;8.25;;
73266;SDS011;61495;53.400;7.608;2023-02-22T06:46:12;21.70;;;11.50;;
73266;SDS011;61495;53.400;7.608;2023-02-22T06:48:37;20.83;;;9.80;;
73266;SDS011;61495;53.400;7.608;2023-02-22T06:51:04;22.55;;;10.55;;
73266;SDS011;61495;53.400;7.608;2023-02-22T06:53:33;22.15;;;9.93;;
73266;SDS011;61495;53.400;7.608;2023-02-22T06:55:59;19.63;;;8.65;;
73266;SDS011;61495;53.400;7.608;2023-02-22T06:58:24;20.35;;;8.95;;
73266;SDS011;61495;53.400;7.608;2023-02-22T07:00:51;22.65;;;9.63;;
73266;SDS011;61495;53.400;7.608;2023-02-22T07:03:16;22.13;;;10.23;;
73266;SDS011;61495;53.400;7.608;2023-02-22T07:05:42;22.75;;;10.02;;
73266;SDS011;61495;53.400;7.608;2023-02-22T07:08:07;22.40;;;9.30;;
73266;SDS011;61495;53.400;7.608;2023-02-22T07:10:33;22.15;;;10.25;;
73266;SDS011;61495;53.400;7.608;2023-02-22T07:13:00;19.45;;;7.78;;
73266;SDS011;61495;53.400;7.608;2023-02-22T07:15:26;20.67;;;9.50;;
73266;SDS011;61495;53.400;7.608;2023-02-22T07:17:53;18.42;;;7.88;;
73266;SDS011;61495;53.400;7.608;2023-02-22T07:20:19;21.80;;;9.70;;
73266;SDS011;61495;53.400;7.608;2023-02-22T07:22:47;17.45;;;8.93;;
73266;SDS011;61495;53.400;7.608;2023-02-22T07:25:13;19.88;;;8.90;;
73266;SDS011;61495;53.400;7.608;2023-02-22T07:27:38;19.05;;;7.90;;
73266;SDS011;61495;53.400;7.608;2023-02-22T07:30:06;18.70;;;8.52;;
73266;SDS011;61495;53.400;7.608;2023-02-22T07:35:19;17.17;;;7.40;;
73266;SDS011;61495;53.400;7.608;2023-02-22T07:37:47;17.33;;;8.02;;
73266;SDS011;61495;53.400;7.608;2023-02-22T07:40:13;17.17;;;7.72;;
73266;SDS011;61495;53.400;7.608;2023-02-22T07:45:28;20.85;;;9.75;;
73266;SDS011;61495;53.400;7.608;2023-02-22T07:47:55;20.00;;;9.27;;
73266;SDS011;61495;53.400;7.608;2023-02-22T07:50:22;18.08;;;7.72;;
73266;SDS011;61495;53.400;7.608;2023-02-22T07:52:49;19.17;;;8.75;;
73266;SDS011;61495;53.400;7.608;2023-02-22T07:55:19;18.88;;;7.88;;
73266;SDS011;61495;53.400;7.608;2023-02-22T07:57:46;18.05;;;7.88;;
73266;SDS011;61495;53.400;7.608;2023-02-22T08:00:13;21.85;;;8.75;;
73266;SDS011;61495;53.400;7.608;2023-02-22T08:02:41;19.38;;;8.70;;
73266;SDS011;61495;53.400;7.608;2023-02-22T08:05:07;20.67;;;7.88;;
73266;SDS011;61495;53.400;7.608;2023-02-22T08:07:35;22.38;;;8.52;;
73266;SDS011;61495;53.400;7.608;2023-02-22T08:10:01;21.85;;;8.75;;
73266;SDS011;61495;53.400;7.608;2023-02-22T08:12:30;18.30;;;8.15;;
73266;SDS011;61495;53.400;7.608;2023-02-22T08:14:56;18.25;;;8.43;;
73266;SDS011;61495;53.400;7.608;2023-02-22T08:17:22;24.23;;;9.60;;
73266;SDS011;61495;53.400;7.608;2023-02-22T08:19:47;16.38;;;6.95;;
73266;SDS011;61495;53.400;7.608;2023-02-22T08:22:12;19.50;;;8.75;;
73266;SDS011;61495;53.400;7.608;2023-02-22T08:24:38;20.73;;;9.45;;
73266;SDS011;61495;53.400;7.608;2023-02-22T08:27:04;20.70;;;10.00;;
73266;SDS011;61495;53.400;7.608;2023-02-22T08:29:30;20.73;;;9.45;;
73266;SDS011;61495;53.400;7.608;2023-02-22T08:31:58;19.33;;;8.73;;
73266;SDS011;61495;53.400;7.608;2023-02-22T08:34:24;18.15;;;8.52;;
73266;SDS011;61495;53.400;7.608;2023-02-22T08:36:50;21.60;;;9.20;;
73266;SDS011;61495;53.400;7.608;2023-02-22T08:39:15;22.98;;;10.88;;
73266;SDS011;61495;53.400;7.608;2023-02-22T08:41:41;21.95;;;10.25;;
73266;SDS011;61495;53.400;7.608;2023-02-22T08:44:06;21.75;;;10.50;;
73266;SDS011;61495;53.400;7.608;2023-02-22T08:46:31;23.58;;;11.27;;
73266;SDS011;61495;53.400;7.608;2023-02-22T08:48:56;25.35;;;10.48;;
73266;SDS011;61495;53.400;7.608;2023-02-22T08:51:22;24.40;;;9.70;;
73266;SDS011;61495;53.400;7.608;2023-02-22T08:53:47;27.23;;;11.52;;
73266;SDS011;61495;53.400;7.608;2023-02-22T08:56:13;21.50;;;9.38;;
73266;SDS011;61495;53.400;7.608;2023-02-22T08:58:38;22.67;;;9.77;;
73266;SDS011;61495;53.400;7.608;2023-02-22T09:01:04;22.85;;;10.95;;
73266;SDS011;61495;53.400;7.608;2023-02-22T09:03:29;25.58;;;10.30;;
73266;SDS011;61495;53.400;7.608;2023-02-22T09:05:54;23.25;;;10.45;;
73266;SDS011;61495;53.400;7.608;2023-02-22T09:08:20;23.05;;;10.18;;
73266;SDS011;61495;53.400;7.608;2023-02-22T09:10:45;26.70;;;11.48;;
73266;SDS011;61495;53.400;7.608;2023-02-22T09:13:11;23.75;;;11.88;;
73266;SDS011;61495;53.400;7.608;2023-02-22T09:15:37;21.27;;;10.30;;
73266;SDS011;61495;53.400;7.608;2023-02-22T09:18:04;23.70;;;10.77;;
73266;SDS011;61495;53.400;7.608;2023-02-22T09:20:35;24.30;;;11.07;;
73266;SDS011;61495;53.400;7.608;2023-02-22T09:23:01;25.00;;;10.63;;
73266;SDS011;61495;53.400;7.608;2023-02-22T09:25:27;21.63;;;11.63;;
73266;SDS011;61495;53.400;7.608;2023-02-22T09:27:53;23.23;;;11.27;;
73266;SDS011;61495;53.400;7.608;2023-02-22T09:30:28;26.00;;;12.27;;
73266;SDS011;61495;53.400;7.608;2023-02-22T09:32:59;28.10;;;13.57;;
73266;SDS011;61495;53.400;7.608;2023-02-22T09:35:26;24.50;;;11.23;;
73266;SDS011;61495;53.400;7.608;2023-02-22T09:37:52;26.30;;;12.15;;
73266;SDS011;61495;53.400;7.608;2023-02-22T09:40:21;27.50;;;13.18;;
73266;SDS011;61495;53.400;7.608;2023-02-22T09:43:05;26.13;;;11.13;;
73266;SDS011;61495;53.400;7.608;2023-02-22T09:45:45;27.05;;;12.57;;
73266;SDS011;61495;53.400;7.608;2023-02-22T09:48:33;27.63;;;12.73;;
73266;SDS011;61495;53.400;7.608;2023-02-22T09:51:07;26.52;;;11.25;;
73266;SDS011;61495;53.400;7.608;2023-02-22T09:53:42;25.45;;;11.45;;
73266;SDS011;61495;53.400;7.608;2023-02-22T09:56:10;27.20;;;12.15;;
73266;SDS011;61495;53.400;7.608;2023-02-22T09:58:39;25.80;;;13.25;;
73266;SDS011;61495;53.400;7.608;2023-02-22T10:01:15;26.52;;;13.77;;
73266;SDS011;61495;53.400;7.608;2023-02-22T10:03:57;22.38;;;11.82;;
73266;SDS011;61495;53.400;7.608;2023-02-22T10:09:30;28.77;;;14.13;;
73266;SDS011;61495;53.400;7.608;2023-02-22T10:11:58;26.73;;;13.55;;
73266;SDS011;61495;53.400;7.608;2023-02-22T10:17:21;26.60;;;13.23;;
73266;SDS011;61495;53.400;7.608;2023-02-22T10:25:08;30.98;;;15.23;;
73266;SDS011;61495;53.400;7.608;2023-02-22T10:27:41;28.67;;;12.68;;
73266;SDS011;61495;53.400;7.608;2023-02-22T10:30:18;26.73;;;12.60;;
73266;SDS011;61495;53.400;7.608;2023-02-22T10:33:12;28.63;;;13.02;;
73266;SDS011;61495;53.400;7.608;2023-02-22T10:35:39;27.05;;;12.27;;
73266;SDS011;61495;53.400;7.608;2023-02-22T10:38:10;22.98;;;12.32;;
73266;SDS011;61495;53.400;7.608;2023-02-22T10:40:42;25.65;;;13.40;;
73266;SDS011;61495;53.400;7.608;2023-02-22T10:43:11;25.65;;;11.57;;
73266;SDS011;61495;53.400;7.608;2023-02-22T10:45:37;26.60;;;12.70;;
73266;SDS011;61495;53.400;7.608;2023-02-22T10:48:07;26.27;;;13.00;;
73266;SDS011;61495;53.400;7.608;2023-02-22T10:50:37;26.00;;;12.23;;
73266;SDS011;61495;53.400;7.608;2023-02-22T10:53:05;25.75;;;12.23;;
73266;SDS011;61495;53.400;7.608;2023-02-22T10:55:31;28.17;;;14.07;;
73266;SDS011;61495;53.400;7.608;2023-02-22T10:58:04;26.05;;;12.20;;
73266;SDS011;61495;53.400;7.608;2023-02-22T11:00:35;25.67;;;11.75;;
73266;SDS011;61495;53.400;7.608;2023-02-22T11:03:14;29.25;;;13.23;;
73266;SDS011;61495;53.400;7.608;2023-02-22T11:05:42;30.65;;;13.77;;
73266;SDS011;61495;53.400;7.608;2023-02-22T11:10:45;27.20;;;12.68;;
73266;SDS011;61495;53.400;7.608;2023-02-22T11:15:54;28.02;;;13.80;;
73266;SDS011;61495;53.400;7.608;2023-02-22T11:18:24;30.88;;;13.00;;
73266;SDS011;61495;53.400;7.608;2023-02-22T11:21:04;28.25;;;12.88;;
73266;SDS011;61495;53.400;7.608;2023-02-22T11:23:34;27.88;;;12.70;;
73266;SDS011;61495;53.400;7.608;2023-02-22T11:26:02;28.38;;;13.07;;
73266;SDS011;61495;53.400;7.608;2023-02-22T11:28:31;24.45;;;12.02;;
73266;SDS011;61495;53.400;7.608;2023-02-22T11:33:53;28.25;;;12.90;;
73266;SDS011;61495;53.400;7.608;2023-02-22T11:36:41;26.30;;;12.20;;
73266;SDS011;61495;53.400;7.608;2023-02-22T11:44:47;28.95;;;11.75;;
73266;SDS011;61495;53.400;7.608;2023-02-22T11:47:26;26.08;;;13.00;;
73266;SDS011;61495;53.400;7.608;2023-02-22T11:49:52;24.40;;;11.55;;
73266;SDS011;61495;53.400;7.608;2023-02-22T11:52:24;27.60;;;12.95;;
73266;SDS011;61495;53.400;7.608;2023-02-22T11:55:19;25.48;;;11.40;;
73266;SDS011;61495;53.400;7.608;2023-02-22T12:09:17;26.60;;;13.03;;
73266;SDS011;61495;53.400;7.608;2023-02-22T12:20:08;29.70;;;13.98;;
73266;SDS011;61495;53.400;7.608;2023-02-22T12:25:38;35.10;;;15.07;;
73266;SDS011;61495;53.400;7.608;2023-02-22T12:28:24;29.00;;;14.48;;
73266;SDS011;61495;53.400;7.608;2023-02-22T12:31:06;31.45;;;13.48;;
73266;SDS011;61495;53.400;7.608;2023-02-22T12:36:21;36.88;;;13.60;;
73266;SDS011;61495;53.400;7.608;2023-02-22T12:39:03;30.65;;;13.75;;
73266;SDS011;61495;53.400;7.608;2023-02-22T12:41:44;30.98;;;12.88;;
73266;SDS011;61495;53.400;7.608;2023-02-22T12:44:19;32.60;;;13.63;;
73266;SDS011;61495;53.400;7.608;2023-02-22T12:46:50;29.83;;;14.02;;
73266;SDS011;61495;53.400;7.608;2023-02-22T12:55:15;28.83;;;13.82;;
73266;SDS011;61495;53.400;7.608;2023-02-22T13:00:42;30.23;;;16.48;;
73266;SDS011;61495;53.400;7.608;2023-02-22T13:20:02;32.20;;;13.95;;
73266;SDS011;61495;53.400;7.608;2023-02-22T13:22:54;36.30;;;15.38;;
73266;SDS011;61495;53.400;7.608;2023-02-22T13:30:53;32.72;;;14.27;;
73266;SDS011;61495;53.400;7.608;2023-02-22T13:41:17;35.33;;;15.03;;
73266;SDS011;61495;53.400;7.608;2023-02-22T13:44:08;32.67;;;15.65;;
73266;SDS011;61495;53.400;7.608;2023-02-22T13:49:23;34.40;;;14.35;;
73266;SDS011;61495;53.400;7.608;2023-02-22T13:52:13;33.20;;;14.63;;
73266;SDS011;61495;53.400;7.608;2023-02-22T13:55:03;37.03;;;17.33;;
73266;SDS011;61495;53.400;7.608;2023-02-22T13:57:42;32.90;;;14.55;;
73266;SDS011;61495;53.400;7.608;2023-02-22T14:13:17;30.50;;;13.63;;
73266;SDS011;61495;53.400;7.608;2023-02-22T14:18:22;31.85;;;15.52;;
73266;SDS011;61495;53.400;7.608;2023-02-22T14:21:03;32.53;;;16.15;;
73266;SDS011;61495;53.400;7.608;2023-02-22T14:23:40;34.22;;;16.27;;
73266;SDS011;61495;53.400;7.608;2023-02-22T14:31:24;32.90;;;15.25;;
73266;SDS011;61495;53.400;7.608;2023-02-22T14:33:58;36.55;;;15.70;;
73266;SDS011;61495;53.400;7.608;2023-02-22T14:41:56;38.00;;;16.02;;
73266;SDS011;61495;53.400;7.608;2023-02-22T14:44:28;33.60;;;15.98;;
73266;SDS011;61495;53.400;7.608;2023-02-22T14:47:17;32.00;;;15.13;;
73266;SDS011;61495;53.400;7.608;2023-02-22T14:52:17;34.05;;;14.30;;
73266;SDS011;61495;53.400;7.608;2023-02-22T14:54:51;35.97;;;17.13;;
73266;SDS011;61495;53.400;7.608;2023-02-22T14:57:33;34.25;;;15.88;;
73266;SDS011;61495;53.400;7.608;2023-02-22T15:02:54;35.35;;;15.63;;
73266;SDS011;61495;53.400;7.608;2023-02-22T15:05:23;34.25;;;15.88;;
73266;SDS011;61495;53.400;7.608;2023-02-22T15:08:01;32.47;;;15.45;;
73266;SDS011;61495;53.400;7.608;2023-02-22T15:10:46;33.80;;;16.40;;
73266;SDS011;61495;53.400;7.608;2023-02-22T15:13:16;36.20;;;15.52;;
73266;SDS011;61495;53.400;7.608;2023-02-22T15:16:11;32.28;;;15.38;;
73266;SDS011;61495;53.400;7.608;2023-02-22T15:18:45;33.53;;;15.57;;
73266;SDS011;61495;53.400;7.608;2023-02-22T15:21:15;37.80;;;16.52;;
73266;SDS011;61495;53.400;7.608;2023-02-22T15:26:26;37.25;;;16.20;;
73266;SDS011;61495;53.400;7.608;2023-02-22T15:28:59;32.72;;;14.98;;
73266;SDS011;61495;53.400;7.608;2023-02-22T15:31:30;36.13;;;15.77;;
73266;SDS011;61495;53.400;7.608;2023-02-22T15:34:07;28.48;;;14.00;;
73266;SDS011;61495;53.400;7.608;2023-02-22T15:36:46;30.73;;;16.27;;
73266;SDS011;61495;53.400;7.608;2023-02-22T15:44:54;34.28;;;15.07;;
73266;SDS011;61495;53.400;7.608;2023-02-22T15:47:20;30.35;;;13.88;;
73266;SDS011;61495;53.400;7.608;2023-02-22T15:52:39;31.23;;;15.30;;
73266;SDS011;61495;53.400;7.608;2023-02-22T15:55:10;32.55;;;15.43;;
73266;SDS011;61495;53.400;7.608;2023-02-22T15:57:38;29.88;;;14.65;;
73266;SDS011;61495;53.400;7.608;2023-02-22T16:00:04;31.10;;;14.52;;
73266;SDS011;61495;53.400;7.608;2023-02-22T16:02:32;31.95;;;14.40;;
73266;SDS011;61495;53.400;7.608;2023-02-22T16:05:05;28.85;;;12.98;;
73266;SDS011;61495;53.400;7.608;2023-02-22T16:07:40;30.00;;;14.02;;
73266;SDS011;61495;53.400;7.608;2023-02-22T16:10:19;29.75;;;15.20;;
73266;SDS011;61495;53.400;7.608;2023-02-22T16:12:48;31.80;;;15.10;;
73266;SDS011;61495;53.400;7.608;2023-02-22T16:15:15;31.88;;;13.98;;
73266;SDS011;61495;53.400;7.608;2023-02-22T16:17:43;29.08;;;13.10;;
73266;SDS011;61495;53.400;7.608;2023-02-22T16:22:39;30.45;;;14.77;;
73266;SDS011;61495;53.400;7.608;2023-02-22T16:25:22;30.85;;;13.65;;
73266;SDS011;61495;53.400;7.608;2023-02-22T16:27:55;26.25;;;13.63;;
73266;SDS011;61495;53.400;7.608;2023-02-22T16:32:51;30.80;;;13.30;;
73266;SDS011;61495;53.400;7.608;2023-02-22T16:35:18;32.08;;;14.15;;
73266;SDS011;61495;53.400;7.608;2023-02-22T16:37:50;28.60;;;13.07;;
73266;SDS011;61495;53.400;7.608;2023-02-22T16:40:20;24.88;;;12.43;;
73266;SDS011;61495;53.400;7.608;2023-02-22T16:42:48;26.98;;;12.52;;
73266;SDS011;61495;53.400;7.608;2023-02-22T16:45:16;28.95;;;14.20;;
73266;SDS011;61495;53.400;7.608;2023-02-22T16:47:42;29.70;;;14.43;;
73266;SDS011;61495;53.400;7.608;2023-02-22T16:50:08;28.50;;;14.43;;
73266;SDS011;61495;53.400;7.608;2023-02-22T16:52:35;28.63;;;12.90;;
73266;SDS011;61495;53.400;7.608;2023-02-22T16:55:03;29.55;;;13.75;;
73266;SDS011;61495;53.400;7.608;2023-02-22T16:57:30;29.52;;;14.23;;
73266;SDS011;61495;53.400;7.608;2023-02-22T16:59:56;32.92;;;13.90;;
73266;SDS011;61495;53.400;7.608;2023-02-22T17:02:22;26.85;;;12.50;;
73266;SDS011;61495;53.400;7.608;2023-02-22T17:04:47;28.95;;;14.50;;
73266;SDS011;61495;53.400;7.608;2023-02-22T17:07:16;30.05;;;14.68;;
73266;SDS011;61495;53.400;7.608;2023-02-22T17:09:44;33.85;;;17.33;;
73266;SDS011;61495;53.400;7.608;2023-02-22T17:12:09;35.67;;;16.65;;
73266;SDS011;61495;53.400;7.608;2023-02-22T17:14:35;31.65;;;15.57;;
73266;SDS011;61495;53.400;7.608;2023-02-22T17:17:00;33.92;;;17.30;;
73266;SDS011;61495;53.400;7.608;2023-02-22T17:19:26;35.58;;;17.50;;
73266;SDS011;61495;53.400;7.608;2023-02-22T17:21:52;35.63;;;18.23;;
73266;SDS011;61495;53.400;7.608;2023-02-22T17:24:18;32.33;;;17.42;;
73266;SDS011;61495;53.400;7.608;2023-02-22T17:26:46;31.00;;;17.13;;
73266;SDS011;61495;53.400;7.608;2023-02-22T17:29:12;28.92;;;14.95;;
73266;SDS011;61495;53.400;7.608;2023-02-22T17:31:39;31.00;;;14.85;;
73266;SDS011;61495;53.400;7.608;2023-02-22T17:34:05;31.00;;;15.77;;
73266;SDS011;61495;53.400;7.608;2023-02-22T17:36:31;32.55;;;16.20;;
73266;SDS011;61495;53.400;7.608;2023-02-22T17:38:58;32.70;;;14.80;;
73266;SDS011;61495;53.400;7.608;2023-02-22T17:41:24;34.28;;;15.68;;
73266;SDS011;61495;53.400;7.608;2023-02-22T17:43:50;28.55;;;12.57;;